Time;durP1;ratioP1;P1;durP2;ratioP2;P2;SDS_P1;SDS_P2;PMS_P1;PMS_P2;Temp;Humidity;BMP_temperature;BMP_pressure;BME280_temperature;BME280_humidity;BME280_pressure;Samples;Min_cycle;Max_cycle;Signal;HPM_P1;HPM_P2
2021/11/09 00:01:13;;;;;;;3.75;1.90;;;;;;;;;;5081524;28;20396;-75
2021/11/09 00:03:45;;;;;;;2.95;1.60;;;;;;;;;;5073487;28;20059;-76
2021/11/09 00:09:03;;;;;;;3.55;2.00;;;;;;;;;;5090575;28;20016;-78
2021/11/09 00:11:29;;;;;;;4.57;1.85;;;;;;;;;;5079113;28;20020;-77
2021/11/09 00:13:54;;;;;;;6.78;2.33;;;;;;;;;;5076337;28;20020;-78
2021/11/09 00:16:19;;;;;;;3.63;1.85;;;;;;;;;;5076137;28;20524;-76
2021/11/09 00:18:45;;;;;;;3.42;2.05;;;;;;;;;;5075064;28;20035;-75
2021/11/09 00:21:11;;;;;;;5.45;2.30;;;;;;;;;;5089860;28;20047;-75
2021/11/09 00:23:36;;;;;;;4.32;1.73;;;;;;;;;;5079357;28;20064;-75
2021/11/09 00:26:01;;;;;;;5.95;2.25;;;;;;;;;;5084101;28;20035;-74
2021/11/09 00:28:27;;;;;;;4.35;2.03;;;;;;;;;;5094299;28;20066;-75
2021/11/09 00:30:52;;;;;;;5.72;2.13;;;;;;;;;;5071580;28;20036;-74
2021/11/09 00:33:17;;;;;;;5.97;2.15;;;;;;;;;;5091559;28;20521;-74
2021/11/09 00:35:43;;;;;;;3.45;1.83;;;;;;;;;;5079326;28;20486;-75
2021/11/09 00:38:09;;;;;;;3.88;1.98;;;;;;;;;;5072590;28;20043;-75
2021/11/09 00:40:35;;;;;;;4.25;2.25;;;;;;;;;;5093555;28;20431;-75
2021/11/09 00:43:00;;;;;;;5.63;1.60;;;;;;;;;;5093501;28;20123;-75
2021/11/09 00:45:25;;;;;;;3.33;1.90;;;;;;;;;;5095347;28;20070;-76
2021/11/09 00:47:50;;;;;;;4.65;2.00;;;;;;;;;;5094551;28;20374;-76
2021/11/09 00:50:17;;;;;;;4.65;1.83;;;;;;;;;;5093735;28;20028;-76
2021/11/09 00:52:43;;;;;;;2.92;1.60;;;;;;;;;;5075734;28;20024;-78
2021/11/09 00:55:09;;;;;;;3.88;2.10;;;;;;;;;;5069846;28;20035;-76
2021/11/09 00:57:34;;;;;;;5.25;1.95;;;;;;;;;;5082578;28;20112;-77
2021/11/09 00:59:59;;;;;;;4.18;1.92;;;;;;;;;;5087696;28;20107;-77
2021/11/09 01:02:25;;;;;;;4.80;2.53;;;;;;;;;;5073400;28;20016;-78
2021/11/09 01:04:50;;;;;;;5.55;2.17;;;;;;;;;;5071254;28;20477;-78
2021/11/09 01:07:15;;;;;;;4.82;1.70;;;;;;;;;;5084847;28;20504;-76
2021/11/09 01:09:40;;;;;;;3.92;1.85;;;;;;;;;;5091657;28;20027;-75
2021/11/09 01:12:07;;;;;;;5.63;1.98;;;;;;;;;;5092161;28;20023;-78
2021/11/09 01:14:32;;;;;;;5.65;2.05;;;;;;;;;;5091539;28;20380;-76
2021/11/09 01:16:57;;;;;;;4.65;2.20;;;;;;;;;;5092508;28;20024;-76
2021/11/09 01:19:23;;;;;;;6.05;2.20;;;;;;;;;;5079878;28;20032;-77
2021/11/09 01:21:51;;;;;;;3.10;1.73;;;;;;;;;;5085921;28;20099;-78
2021/11/09 01:24:17;;;;;;;3.95;1.70;;;;;;;;;;5087948;28;20101;-78
2021/11/09 01:26:43;;;;;;;6.78;2.10;;;;;;;;;;5093467;28;20413;-78
2021/11/09 01:29:08;;;;;;;4.90;2.20;;;;;;;;;;5089294;28;20025;-76
2021/11/09 01:31:34;;;;;;;6.03;2.17;;;;;;;;;;5076052;28;20025;-76
2021/11/09 01:33:59;;;;;;;3.33;2.03;;;;;;;;;;5087911;28;20452;-75
2021/11/09 01:36:25;;;;;;;5.90;2.03;;;;;;;;;;5091738;28;20016;-76
2021/11/09 01:38:50;;;;;;;4.20;1.58;;;;;;;;;;5074991;28;20046;-75
2021/11/09 01:41:16;;;;;;;5.88;1.92;;;;;;;;;;5091580;28;20508;-76
2021/11/09 01:43:42;;;;;;;4.45;2.08;;;;;;;;;;5091508;28;20031;-75
2021/11/09 01:46:08;;;;;;;6.03;1.80;;;;;;;;;;5070387;28;20043;-74
2021/11/09 01:48:33;;;;;;;6.13;2.00;;;;;;;;;;5102371;28;20028;-75
2021/11/09 01:51:02;;;;;;;4.32;1.75;;;;;;;;;;5101100;28;20026;-76
2021/11/09 01:53:28;;;;;;;5.85;2.35;;;;;;;;;;5070268;28;20017;-76
2021/11/09 01:55:53;;;;;;;5.22;2.03;;;;;;;;;;5083412;28;20028;-76
2021/11/09 01:58:19;;;;;;;6.13;1.92;;;;;;;;;;5082015;28;20069;-76
2021/11/09 02:00:46;;;;;;;5.43;2.00;;;;;;;;;;5085589;28;20113;-76
2021/11/09 02:03:11;;;;;;;4.88;2.15;;;;;;;;;;5072653;28;20055;-76
2021/11/09 02:05:36;;;;;;;5.97;2.03;;;;;;;;;;5072952;28;20032;-76
2021/11/09 02:08:03;;;;;;;5.80;1.77;;;;;;;;;;5105036;28;20024;-81
2021/11/09 02:10:30;;;;;;;5.72;2.28;;;;;;;;;;5089224;28;20021;-82
2021/11/09 02:12:56;;;;;;;4.18;1.88;;;;;;;;;;5103127;28;20028;-82
2021/11/09 02:15:22;;;;;;;6.30;2.22;;;;;;;;;;5102365;28;20391;-77
2021/11/09 02:17:48;;;;;;;5.10;2.25;;;;;;;;;;5092986;28;20027;-77
2021/11/09 02:20:15;;;;;;;7.15;2.25;;;;;;;;;;5070555;28;20036;-76
2021/11/09 02:22:41;;;;;;;4.72;1.98;;;;;;;;;;5075430;28;20182;-75
2021/11/09 02:25:09;;;;;;;5.40;2.55;;;;;;;;;;5092353;28;20032;-76
2021/11/09 02:27:34;;;;;;;4.05;2.58;;;;;;;;;;5085524;28;20131;-76
2021/11/09 02:30:00;;;;;;;6.50;3.20;;;;;;;;;;5087792;28;20519;-76
2021/11/09 02:32:25;;;;;;;5.10;3.00;;;;;;;;;;5075121;28;20012;-75
2021/11/09 02:34:50;;;;;;;11.07;3.15;;;;;;;;;;5074119;28;20027;-75
2021/11/09 02:37:16;;;;;;;9.98;3.92;;;;;;;;;;5087890;28;20033;-76
2021/11/09 02:39:42;;;;;;;10.30;3.80;;;;;;;;;;5090271;28;20035;-76
2021/11/09 02:42:13;;;;;;;8.32;3.38;;;;;;;;;;5071712;28;20035;-76
2021/11/09 02:44:49;;;;;;;10.23;4.20;;;;;;;;;;5087172;28;20369;-76
2021/11/09 02:47:15;;;;;;;10.38;3.70;;;;;;;;;;5090612;28;20027;-76
2021/11/09 02:50:00;;;;;;;9.05;3.92;;;;;;;;;;5090131;28;20059;-75
2021/11/09 02:52:28;;;;;;;7.55;3.45;;;;;;;;;;5080677;28;20028;-76
2021/11/09 02:55:01;;;;;;;9.73;3.65;;;;;;;;;;5091659;28;20017;-75
2021/11/09 03:00:15;;;;;;;7.35;3.50;;;;;;;;;;5080192;28;20035;-75
2021/11/09 03:02:47;;;;;;;6.97;3.45;;;;;;;;;;5060620;28;20426;-77
2021/11/09 03:05:21;;;;;;;6.55;3.40;;;;;;;;;;5071151;28;20051;-78
2021/11/09 03:10:29;;;;;;;5.97;2.50;;;;;;;;;;5090551;28;20035;-78
2021/11/09 03:12:55;;;;;;;6.20;2.50;;;;;;;;;;5112185;28;20016;-77
2021/11/09 03:15:25;;;;;;;6.15;2.63;;;;;;;;;;5101496;28;20035;-76
2021/11/09 03:17:58;;;;;;;6.43;2.55;;;;;;;;;;5095512;28;20032;-76
2021/11/09 03:20:31;;;;;;;5.95;2.40;;;;;;;;;;5093378;28;20027;-76
2021/11/09 03:45:06;;;;;;;5.28;2.63;;;;;;;;;;5094864;28;20031;-78
2021/11/09 03:47:36;;;;;;;6.13;2.45;;;;;;;;;;5092585;28;20112;-78
2021/11/09 03:50:01;;;;;;;6.15;2.33;;;;;;;;;;5094695;28;20249;-77
2021/11/09 03:52:29;;;;;;;7.22;2.30;;;;;;;;;;5070831;28;21685;-76
2021/11/09 03:55:01;;;;;;;5.15;2.58;;;;;;;;;;5103824;28;20027;-79
2021/11/09 03:57:29;;;;;;;7.30;2.83;;;;;;;;;;5086524;28;20020;-78
2021/11/09 04:00:12;;;;;;;7.82;3.17;;;;;;;;;;5090396;28;20481;-76
2021/11/09 04:05:09;;;;;;;8.43;2.90;;;;;;;;;;5095571;28;20032;-79
2021/11/09 04:07:41;;;;;;;6.10;2.67;;;;;;;;;;5092287;28;20062;-77
2021/11/09 04:10:17;;;;;;;5.50;2.33;;;;;;;;;;5104328;28;20446;-75
2021/11/09 04:16:12;;;;;;;5.05;2.30;;;;;;;;;;5094132;28;20053;-77
2021/11/09 04:43:36;;;;;;;5.88;2.97;;;;;;;;;;5093202;28;20028;-77
2021/11/09 04:46:21;;;;;;;7.13;3.03;;;;;;;;;;5091300;28;20047;-76
2021/11/09 05:09:07;;;;;;;6.85;3.22;;;;;;;;;;5089183;28;20166;-77
2021/11/09 05:11:32;;;;;;;8.27;3.70;;;;;;;;;;5086901;28;20020;-79
2021/11/09 05:13:58;;;;;;;8.93;3.95;;;;;;;;;;5092078;28;20024;-78
2021/11/09 05:16:23;;;;;;;8.88;3.58;;;;;;;;;;5084156;28;20123;-78
2021/11/09 05:18:49;;;;;;;8.85;3.83;;;;;;;;;;5073207;28;20486;-78
2021/11/09 05:21:14;;;;;;;9.10;3.92;;;;;;;;;;5072249;28;20028;-77
2021/11/09 05:23:39;;;;;;;9.70;3.63;;;;;;;;;;5072151;28;20024;-78
2021/11/09 05:26:05;;;;;;;11.80;4.22;;;;;;;;;;5079636;28;20160;-78
2021/11/09 05:28:30;;;;;;;10.25;4.03;;;;;;;;;;5091726;28;20108;-77
2021/11/09 05:30:55;;;;;;;8.25;3.72;;;;;;;;;;5080215;28;20403;-76
2021/11/09 05:33:22;;;;;;;11.45;4.40;;;;;;;;;;5093166;28;20021;-82
2021/11/09 05:35:49;;;;;;;7.40;3.53;;;;;;;;;;5092869;28;20027;-79
2021/11/09 05:38:16;;;;;;;7.50;4.28;;;;;;;;;;5092942;28;20103;-81
2021/11/09 05:40:51;;;;;;;10.18;4.18;;;;;;;;;;5119702;28;20115;-80
2021/11/09 05:43:17;;;;;;;5.35;3.80;;;;;;;;;;5100212;28;20051;-81
2021/11/09 05:45:42;;;;;;;9.57;5.00;;;;;;;;;;5100213;28;20032;-81
2021/11/09 05:48:07;;;;;;;10.40;4.65;;;;;;;;;;5098819;28;20024;-78
2021/11/09 05:50:33;;;;;;;8.60;4.63;;;;;;;;;;5095302;28;20027;-81
2021/11/09 05:52:58;;;;;;;10.40;4.60;;;;;;;;;;5090922;28;20510;-80
2021/11/09 05:55:23;;;;;;;10.10;4.22;;;;;;;;;;5080799;28;20035;-81
2021/11/09 05:57:49;;;;;;;8.45;4.38;;;;;;;;;;5080510;28;20370;-80
2021/11/09 06:00:14;;;;;;;9.52;4.40;;;;;;;;;;5079487;28;20329;-79
2021/11/09 06:02:40;;;;;;;9.65;4.55;;;;;;;;;;5090710;28;20032;-75
2021/11/09 06:05:06;;;;;;;7.90;4.55;;;;;;;;;;5070730;28;20477;-79
2021/11/09 06:07:31;;;;;;;8.55;4.32;;;;;;;;;;5071316;28;20112;-76
2021/11/09 06:09:56;;;;;;;9.93;4.60;;;;;;;;;;5071717;28;20436;-77
2021/11/09 06:12:22;;;;;;;12.40;4.50;;;;;;;;;;5092038;28;20024;-79
2021/11/09 06:14:47;;;;;;;11.32;4.93;;;;;;;;;;5091780;28;20020;-79
2021/11/09 06:17:12;;;;;;;9.07;4.63;;;;;;;;;;5086398;28;20024;-79
2021/11/09 06:19:37;;;;;;;10.70;5.13;;;;;;;;;;5091812;28;20016;-77
2021/11/09 06:22:03;;;;;;;10.93;5.03;;;;;;;;;;5070292;28;20476;-82
2021/11/09 06:24:29;;;;;;;14.13;6.13;;;;;;;;;;5073795;28;20476;-79
2021/11/09 06:26:54;;;;;;;8.77;5.57;;;;;;;;;;5090894;28;20161;-80
2021/11/09 06:29:20;;;;;;;11.57;5.18;;;;;;;;;;5093575;28;20032;-81
2021/11/09 06:31:45;;;;;;;12.07;5.53;;;;;;;;;;5093823;28;20012;-80
2021/11/09 06:34:10;;;;;;;9.65;4.85;;;;;;;;;;5098392;28;20014;-77
2021/11/09 06:36:36;;;;;;;11.40;5.60;;;;;;;;;;5093550;28;20577;-78
2021/11/09 06:39:01;;;;;;;11.05;4.88;;;;;;;;;;5092571;28;20016;-78
2021/11/09 06:41:27;;;;;;;9.75;4.70;;;;;;;;;;5078029;28;20028;-78
2021/11/09 06:43:52;;;;;;;10.73;5.55;;;;;;;;;;5089624;28;20028;-78
2021/11/09 06:46:17;;;;;;;9.18;5.03;;;;;;;;;;5088207;28;20393;-78
2021/11/09 06:48:45;;;;;;;11.45;5.57;;;;;;;;;;5094051;28;20024;-78
2021/11/09 06:51:10;;;;;;;9.20;4.80;;;;;;;;;;5082452;28;22027;-77
2021/11/09 06:53:35;;;;;;;11.60;5.68;;;;;;;;;;5072590;28;20485;-78
2021/11/09 06:56:01;;;;;;;10.65;4.88;;;;;;;;;;5074709;28;20015;-79
2021/11/09 06:58:26;;;;;;;11.90;5.47;;;;;;;;;;5098615;28;20262;-78
2021/11/09 07:00:51;;;;;;;9.88;5.20;;;;;;;;;;5097785;28;20031;-77
2021/11/09 07:03:16;;;;;;;12.13;5.85;;;;;;;;;;5116331;28;20024;-77
2021/11/09 07:05:41;;;;;;;11.20;5.97;;;;;;;;;;5116870;28;20019;-77
2021/11/09 07:08:07;;;;;;;9.35;5.68;;;;;;;;;;5099428;28;20514;-78
2021/11/09 07:10:32;;;;;;;11.20;5.63;;;;;;;;;;5089027;28;20480;-78
2021/11/09 07:12:57;;;;;;;14.60;5.68;;;;;;;;;;5083464;28;20029;-77
2021/11/09 07:15:23;;;;;;;12.32;6.03;;;;;;;;;;5075095;28;20377;-77
2021/11/09 07:17:48;;;;;;;17.52;5.30;;;;;;;;;;5094736;28;20475;-76
2021/11/09 07:20:15;;;;;;;11.77;5.60;;;;;;;;;;5087693;28;20361;-77
2021/11/09 07:22:41;;;;;;;10.88;4.70;;;;;;;;;;5073529;28;20012;-76
2021/11/09 07:25:07;;;;;;;8.57;5.28;;;;;;;;;;5093304;28;20504;-77
2021/11/09 07:27:33;;;;;;;7.00;4.80;;;;;;;;;;5075304;28;20049;-76
2021/11/09 07:29:58;;;;;;;8.63;4.57;;;;;;;;;;5074570;28;20035;-77
2021/11/09 07:32:25;;;;;;;8.23;4.78;;;;;;;;;;5086517;28;20099;-78
2021/11/09 07:34:50;;;;;;;12.25;5.35;;;;;;;;;;5094827;28;20016;-77
2021/11/09 07:37:17;;;;;;;6.97;4.38;;;;;;;;;;5093897;28;20020;-78
2021/11/09 07:39:43;;;;;;;8.93;4.22;;;;;;;;;;5088123;28;20095;-77
2021/11/09 07:42:08;;;;;;;8.07;3.80;;;;;;;;;;5075240;28;20311;-78
2021/11/09 07:44:34;;;;;;;11.02;5.05;;;;;;;;;;5075285;28;20024;-78
2021/11/09 07:46:59;;;;;;;7.68;3.95;;;;;;;;;;5093484;28;20111;-77
2021/11/09 07:49:25;;;;;;;7.63;3.85;;;;;;;;;;5076613;28;20046;-77
2021/11/09 07:51:50;;;;;;;8.88;4.10;;;;;;;;;;5079988;28;20031;-77
2021/11/09 07:54:18;;;;;;;8.93;3.92;;;;;;;;;;5084415;28;20039;-78
2021/11/09 07:56:44;;;;;;;9.82;4.88;;;;;;;;;;5082358;28;20024;-78
2021/11/09 08:06:31;;;;;;;9.90;5.43;;;;;;;;;;5095281;28;20028;-78
2021/11/09 08:11:22;;;;;;;12.25;4.90;;;;;;;;;;5094460;28;20432;-78
2021/11/09 08:13:47;;;;;;;7.35;4.70;;;;;;;;;;5093610;28;20387;-79
2021/11/09 08:16:13;;;;;;;7.25;4.55;;;;;;;;;;5093318;28;20043;-77
2021/11/09 08:18:38;;;;;;;8.23;4.07;;;;;;;;;;5094098;28;20022;-78
2021/11/09 08:21:05;;;;;;;7.07;4.53;;;;;;;;;;5090297;28;20482;-77
2021/11/09 08:23:31;;;;;;;9.25;4.03;;;;;;;;;;5071403;28;20105;-77
2021/11/09 08:25:57;;;;;;;7.90;3.58;;;;;;;;;;5081348;28;20571;-78
2021/11/09 08:28:22;;;;;;;7.82;3.63;;;;;;;;;;5073876;28;20049;-78
2021/11/09 08:30:50;;;;;;;9.23;3.78;;;;;;;;;;5087032;28;20012;-76
2021/11/09 08:33:16;;;;;;;6.05;3.22;;;;;;;;;;5092733;28;20016;-77
2021/11/09 08:35:41;;;;;;;9.15;4.13;;;;;;;;;;5093005;28;20019;-77
2021/11/09 08:38:07;;;;;;;6.45;3.30;;;;;;;;;;5086752;28;20101;-74
2021/11/09 08:40:34;;;;;;;7.63;3.58;;;;;;;;;;5090570;28;20077;-73
2021/11/09 08:43:00;;;;;;;10.95;3.20;;;;;;;;;;5092288;28;20020;-72
2021/11/09 08:45:32;;;;;;;8.02;4.35;;;;;;;;;;5092972;28;20055;-78
2021/11/09 08:48:07;;;;;;;7.47;3.58;;;;;;;;;;5092755;28;20028;-73
2021/11/09 08:50:32;;;;;;;9.02;3.30;;;;;;;;;;5090821;28;20384;-71
2021/11/09 08:53:02;;;;;;;9.35;4.10;;;;;;;;;;5075989;28;20096;-76
2021/11/09 08:55:35;;;;;;;9.48;3.78;;;;;;;;;;5073189;28;20498;-81
2021/11/09 09:01:02;;;;;;;7.07;3.70;;;;;;;;;;5091518;28;20032;-72
2021/11/09 09:06:17;;;;;;;10.05;4.75;;;;;;;;;;5092812;28;20612;-68
2021/11/09 09:08:42;;;;;;;6.40;4.28;;;;;;;;;;5088144;28;20021;-79
2021/11/09 09:11:08;;;;;;;7.40;3.97;;;;;;;;;;5087372;28;20030;-78
2021/11/09 09:13:34;;;;;;;8.80;3.60;;;;;;;;;;5085746;28;20056;-84
2021/11/09 09:16:00;;;;;;;9.73;4.50;;;;;;;;;;5071503;28;20058;-76
2021/11/09 09:18:25;;;;;;;12.98;5.50;;;;;;;;;;5082429;28;20411;-73
2021/11/09 09:20:54;;;;;;;6.45;3.50;;;;;;;;;;5088266;28;20035;-76
2021/11/09 09:23:26;;;;;;;8.63;3.72;;;;;;;;;;5068138;28;20086;-84
2021/11/09 09:26:05;;;;;;;8.20;4.03;;;;;;;;;;5073511;28;20024;-85
2021/11/09 09:29:03;;;;;;;8.00;4.30;;;;;;;;;;5078431;28;20514;-78
2021/11/09 09:53:14;;;;;;;7.93;2.92;;;;;;;;;;5076893;28;20032;-79
2021/11/09 09:55:45;;;;;;;7.07;2.92;;;;;;;;;;5074179;28;20490;-75
2021/11/09 09:58:11;;;;;;;3.55;2.40;;;;;;;;;;5092932;28;20026;-79
2021/11/09 10:00:37;;;;;;;4.60;1.75;;;;;;;;;;5083475;28;20106;-79
2021/11/09 10:03:03;;;;;;;5.90;1.80;;;;;;;;;;5103333;28;20020;-79
2021/11/09 10:05:31;;;;;;;4.82;1.90;;;;;;;;;;5106233;28;20369;-79
2021/11/09 10:07:57;;;;;;;5.60;2.30;;;;;;;;;;5079987;28;20548;-78
2021/11/09 10:10:23;;;;;;;4.15;2.08;;;;;;;;;;5088662;28;20016;-80
2021/11/09 10:13:03;;;;;;;3.70;1.40;;;;;;;;;;5094941;28;20021;-77
2021/11/09 10:15:30;;;;;;;5.68;1.38;;;;;;;;;;5086283;28;20407;-78
2021/11/09 10:18:15;;;;;;;4.30;1.80;;;;;;;;;;5083112;28;20008;-79
2021/11/09 10:20:43;;;;;;;3.75;1.55;;;;;;;;;;5090432;28;20032;-77
2021/11/09 10:23:12;;;;;;;4.05;1.77;;;;;;;;;;5082592;28;20020;-82
2021/11/09 10:25:37;;;;;;;3.33;1.20;;;;;;;;;;5104959;28;20036;-81
2021/11/09 10:28:04;;;;;;;4.35;1.25;;;;;;;;;;5105311;28;20049;-79
2021/11/09 10:30:34;;;;;;;3.40;1.00;;;;;;;;;;5105370;28;20020;-77
2021/11/09 10:33:00;;;;;;;6.05;1.00;;;;;;;;;;5098508;28;20048;-78
2021/11/09 10:35:26;;;;;;;4.60;0.82;;;;;;;;;;5101048;28;20039;-78
2021/11/09 10:37:59;;;;;;;4.55;0.90;;;;;;;;;;5115400;28;19996;-78
2021/11/09 10:40:26;;;;;;;3.50;0.65;;;;;;;;;;5130849;28;20022;-78
2021/11/09 10:42:53;;;;;;;6.07;0.70;;;;;;;;;;5103785;28;20016;-77
2021/11/09 10:45:22;;;;;;;4.20;0.70;;;;;;;;;;5111690;28;20012;-78
2021/11/09 10:47:49;;;;;;;1.63;0.52;;;;;;;;;;5105770;28;20009;-79
2021/11/09 10:50:22;;;;;;;1.63;0.50;;;;;;;;;;5108232;28;20484;-77
2021/11/09 10:52:49;;;;;;;3.55;0.50;;;;;;;;;;5094593;28;20046;-79
2021/11/09 10:55:25;;;;;;;3.28;0.93;;;;;;;;;;5090373;28;20020;-79
2021/11/09 11:00:55;;;;;;;0.88;0.20;;;;;;;;;;5103144;28;20482;-78
2021/11/09 11:03:32;;;;;;;0.73;0.20;;;;;;;;;;5102652;28;20569;-79
2021/11/09 11:06:19;;;;;;;1.25;0.20;;;;;;;;;;5060648;28;20021;-79
2021/11/09 11:08:45;;;;;;;2.08;0.30;;;;;;;;;;5101441;28;20095;-79
2021/11/09 11:11:18;;;;;;;1.15;0.40;;;;;;;;;;5074724;28;20540;-78
2021/11/09 11:13:43;;;;;;;1.05;0.20;;;;;;;;;;5076295;28;20031;-78
2021/11/09 11:16:10;;;;;;;1.33;0.30;;;;;;;;;;5089542;28;20020;-78
2021/11/09 11:18:40;;;;;;;0.80;0.20;;;;;;;;;;5091753;28;20024;-78
2021/11/09 11:21:10;;;;;;;1.65;0.30;;;;;;;;;;5085924;28;20111;-78
2021/11/09 11:23:36;;;;;;;0.40;0.20;;;;;;;;;;5069465;28;20028;-78
2021/11/09 11:26:02;;;;;;;0.45;0.20;;;;;;;;;;5088624;28;20419;-77
2021/11/09 11:28:28;;;;;;;1.98;0.30;;;;;;;;;;5091382;28;20028;-76
2021/11/09 11:30:54;;;;;;;1.15;0.20;;;;;;;;;;5086291;28;20050;-77
2021/11/09 11:33:19;;;;;;;0.73;0.20;;;;;;;;;;5090095;28;20034;-77
2021/11/09 11:35:45;;;;;;;0.38;0.20;;;;;;;;;;5090894;28;20043;-76
2021/11/09 11:38:10;;;;;;;2.35;0.20;;;;;;;;;;5089746;28;20027;-76
2021/11/09 11:40:36;;;;;;;1.05;0.20;;;;;;;;;;5079040;28;20036;-77
2021/11/09 11:43:01;;;;;;;0.40;0.15;;;;;;;;;;5084628;28;20048;-76
2021/11/09 11:45:28;;;;;;;0.40;0.17;;;;;;;;;;5076572;28;20507;-76
2021/11/09 11:48:03;;;;;;;0.73;0.20;;;;;;;;;;5091459;28;20016;-77
2021/11/09 11:50:37;;;;;;;2.05;0.20;;;;;;;;;;5093499;28;20016;-76
2021/11/09 11:53:02;;;;;;;0.50;0.20;;;;;;;;;;5071681;28;20069;-75
2021/11/09 11:55:30;;;;;;;0.63;0.10;;;;;;;;;;5075354;28;20103;-76
2021/11/09 11:58:04;;;;;;;0.85;0.20;;;;;;;;;;5068754;28;20329;-75
2021/11/09 12:00:42;;;;;;;0.65;0.10;;;;;;;;;;5080993;28;20012;-75
2021/11/09 12:03:19;;;;;;;1.08;0.20;;;;;;;;;;5094860;28;20019;-76
2021/11/09 12:05:45;;;;;;;1.80;0.20;;;;;;;;;;5092411;28;20020;-76
2021/11/09 12:08:11;;;;;;;0.90;0.13;;;;;;;;;;5090568;28;20032;-74
2021/11/09 12:10:38;;;;;;;1.40;0.20;;;;;;;;;;5056649;28;20028;-75
2021/11/09 12:13:05;;;;;;;0.30;0.20;;;;;;;;;;5074197;28;20602;-75
2021/11/09 12:15:49;;;;;;;0.40;0.20;;;;;;;;;;5072681;28;20488;-74
2021/11/09 12:18:30;;;;;;;0.70;0.30;;;;;;;;;;5089414;28;20068;-74
2021/11/09 12:20:56;;;;;;;0.43;0.10;;;;;;;;;;5090012;28;20024;-74
2021/11/09 12:23:21;;;;;;;0.52;0.22;;;;;;;;;;5089665;28;20498;-74
2021/11/09 12:25:49;;;;;;;0.35;0.15;;;;;;;;;;5072204;28;20028;-75
2021/11/09 12:28:16;;;;;;;0.40;0.10;;;;;;;;;;5077649;28;20032;-75
2021/11/09 12:30:41;;;;;;;0.30;0.25;;;;;;;;;;5082378;28;20629;-74
2021/11/09 12:33:38;;;;;;;0.45;0.20;;;;;;;;;;5072821;28;20021;-75
2021/11/09 12:36:05;;;;;;;0.68;0.20;;;;;;;;;;5082274;28;20032;-76
2021/11/09 12:38:33;;;;;;;0.52;0.20;;;;;;;;;;5091965;28;20019;-75
2021/11/09 12:41:00;;;;;;;2.00;0.25;;;;;;;;;;5091929;28;20099;-75
2021/11/09 12:43:31;;;;;;;1.38;0.20;;;;;;;;;;5094099;28;20070;-75
2021/11/09 12:45:56;;;;;;;0.63;0.17;;;;;;;;;;5093421;28;20016;-75
2021/11/09 12:48:24;;;;;;;0.50;0.20;;;;;;;;;;5093746;28;20016;-75
2021/11/09 12:50:54;;;;;;;1.38;0.20;;;;;;;;;;5092642;28;20266;-75
2021/11/09 12:53:21;;;;;;;1.23;0.20;;;;;;;;;;5082970;28;20047;-74
2021/11/09 12:55:56;;;;;;;1.27;0.20;;;;;;;;;;5074824;28;20156;-76
2021/11/09 12:58:23;;;;;;;1.52;0.30;;;;;;;;;;5071952;28;20199;-77
2021/11/09 13:01:48;;;;;;;2.05;0.38;;;;;;;;;;5090299;28;20071;-75
2021/11/09 13:09:33;;;;;;;1.23;0.30;;;;;;;;;;4986560;28;20130;-76
2021/11/09 13:12:03;;;;;;;2.47;0.30;;;;;;;;;;5008443;28;20470;-78
2021/11/09 13:14:33;;;;;;;1.60;0.30;;;;;;;;;;4996423;28;20030;-78
2021/11/09 13:16:59;;;;;;;2.42;0.30;;;;;;;;;;5004581;28;20112;-78
2021/11/09 13:19:36;;;;;;;1.60;0.50;;;;;;;;;;4978724;28;20151;-79
2021/11/09 13:22:08;;;;;;;1.98;0.38;;;;;;;;;;4977674;28;20033;-78
2021/11/09 13:24:35;;;;;;;2.05;0.85;;;;;;;;;;4985260;28;20165;-79
2021/11/09 13:27:00;;;;;;;1.60;0.40;;;;;;;;;;4988180;28;20208;-76
2021/11/09 13:29:26;;;;;;;2.47;0.30;;;;;;;;;;4974662;28;20128;-78
2021/11/09 13:31:51;;;;;;;2.05;0.30;;;;;;;;;;4977654;28;20042;-78
2021/11/09 13:34:17;;;;;;;3.55;0.40;;;;;;;;;;4993953;28;20085;-79
2021/11/09 13:36:43;;;;;;;1.98;0.40;;;;;;;;;;4981701;28;20133;-79
2021/11/09 13:39:08;;;;;;;5.55;0.55;;;;;;;;;;5079754;28;20448;-78
2021/11/09 13:41:33;;;;;;;2.47;0.60;;;;;;;;;;5091601;28;20024;-78
2021/11/09 13:44:05;;;;;;;2.60;0.52;;;;;;;;;;5088258;28;20043;-79
2021/11/09 13:46:31;;;;;;;2.92;0.43;;;;;;;;;;5092095;28;20553;-79
2021/11/09 13:49:01;;;;;;;2.15;0.40;;;;;;;;;;5090989;28;20044;-78
2021/11/09 13:51:29;;;;;;;2.67;0.60;;;;;;;;;;5071070;28;20023;-78
2021/11/09 13:54:04;;;;;;;3.85;0.50;;;;;;;;;;5079817;28;20009;-79
2021/11/09 13:56:29;;;;;;;2.67;0.65;;;;;;;;;;5070688;28;20023;-79
2021/11/09 13:58:58;;;;;;;2.50;0.30;;;;;;;;;;5072412;28;20025;-79
2021/11/09 14:01:33;;;;;;;3.50;0.30;;;;;;;;;;5084414;28;20016;-79
2021/11/09 14:06:56;;;;;;;3.00;0.60;;;;;;;;;;5072301;28;19987;-76
2021/11/09 14:12:45;;;;;;;1.05;0.35;;;;;;;;;;5091263;28;20034;-78
2021/11/09 14:15:19;;;;;;;1.65;0.45;;;;;;;;;;5085740;28;20343;-78
2021/11/09 14:17:44;;;;;;;2.75;0.50;;;;;;;;;;5090312;28;20023;-76
2021/11/09 14:20:13;;;;;;;2.47;0.90;;;;;;;;;;5073341;28;20024;-77
2021/11/09 14:22:39;;;;;;;2.53;0.50;;;;;;;;;;5068694;28;20048;-77
2021/11/09 14:25:05;;;;;;;3.25;0.35;;;;;;;;;;5082287;28;20051;-77
2021/11/09 14:27:33;;;;;;;1.73;0.22;;;;;;;;;;5073213;28;20044;-78
2021/11/09 14:30:00;;;;;;;1.13;0.30;;;;;;;;;;5072721;28;20047;-78
2021/11/09 14:32:28;;;;;;;2.63;0.35;;;;;;;;;;5083416;28;20111;-78
2021/11/09 14:35:16;;;;;;;1.40;0.30;;;;;;;;;;5090054;28;20525;-78
2021/11/09 14:37:51;;;;;;;1.92;0.28;;;;;;;;;;5090305;28;20085;-78
2021/11/09 14:40:16;;;;;;;2.28;0.60;;;;;;;;;;5070705;28;20029;-77
2021/11/09 14:45:24;;;;;;;2.88;0.50;;;;;;;;;;5086186;28;20020;-76
2021/11/09 14:47:54;;;;;;;0.88;0.30;;;;;;;;;;5070844;28;20029;-77
2021/11/09 14:50:29;;;;;;;2.92;0.40;;;;;;;;;;5080729;28;20024;-76
2021/11/09 14:53:05;;;;;;;2.22;0.40;;;;;;;;;;5070450;28;20071;-76
2021/11/09 14:55:40;;;;;;;1.92;0.40;;;;;;;;;;5074904;28;20065;-76
2021/11/09 14:58:22;;;;;;;3.33;0.70;;;;;;;;;;5079185;28;20103;-78
2021/11/09 15:00:47;;;;;;;2.08;0.50;;;;;;;;;;5087735;28;20020;-79
2021/11/09 15:03:12;;;;;;;1.83;0.50;;;;;;;;;;5090067;28;20035;-74
2021/11/09 15:05:37;;;;;;;2.45;0.40;;;;;;;;;;5076676;28;20016;-73
2021/11/09 15:08:09;;;;;;;2.92;1.27;;;;;;;;;;5082247;28;20029;-75
2021/11/09 15:10:47;;;;;;;3.45;1.15;;;;;;;;;;5078898;28;20371;-74
2021/11/09 15:13:28;;;;;;;2.97;0.65;;;;;;;;;;5108967;28;20016;-77
2021/11/09 15:32:14;;;;;;;3.70;1.20;;;;;;;;;;5071734;28;20044;-75
2021/11/09 15:39:33;;;;;;;7.10;2.50;;;;;;;;;;5070345;28;20028;-76
2021/11/09 15:41:59;;;;;;;6.45;2.15;;;;;;;;;;5055837;28;20070;-74
2021/11/09 15:44:25;;;;;;;5.82;3.28;;;;;;;;;;5071952;28;20032;-75
2021/11/09 15:46:55;;;;;;;5.13;2.20;;;;;;;;;;5051417;28;20044;-74
2021/11/09 15:49:20;;;;;;;6.93;1.95;;;;;;;;;;5068870;28;20223;-74
2021/11/09 15:51:46;;;;;;;8.20;2.55;;;;;;;;;;5066838;28;20539;-75
2021/11/09 15:54:12;;;;;;;5.53;3.05;;;;;;;;;;5071445;28;20054;-74
2021/11/09 15:56:38;;;;;;;8.52;3.70;;;;;;;;;;5072989;28;20094;-74
2021/11/09 15:59:03;;;;;;;6.72;4.07;;;;;;;;;;5093596;28;20028;-74
2021/11/09 16:01:29;;;;;;;9.13;3.35;;;;;;;;;;5087574;28;20028;-75
2021/11/09 16:03:54;;;;;;;6.00;2.40;;;;;;;;;;5085616;28;20410;-74
2021/11/09 16:06:19;;;;;;;5.85;2.70;;;;;;;;;;5092749;28;20309;-75
2021/11/09 16:08:45;;;;;;;8.98;3.15;;;;;;;;;;5095719;28;20023;-74
2021/11/09 16:11:13;;;;;;;7.47;4.00;;;;;;;;;;5085760;28;20060;-74
2021/11/09 16:13:40;;;;;;;10.45;3.38;;;;;;;;;;5119006;27;20513;-74
2021/11/09 16:16:05;;;;;;;6.13;3.08;;;;;;;;;;5090654;28;20043;-74
2021/11/09 16:18:31;;;;;;;7.03;3.13;;;;;;;;;;5076225;28;20021;-74
2021/11/09 16:20:56;;;;;;;5.00;2.05;;;;;;;;;;5088742;28;20024;-73
2021/11/09 16:23:22;;;;;;;4.05;2.13;;;;;;;;;;5072805;28;20021;-73
2021/11/09 16:25:47;;;;;;;6.70;3.17;;;;;;;;;;5092644;28;20122;-73
2021/11/09 16:28:15;;;;;;;5.30;2.63;;;;;;;;;;5092288;28;20055;-74
2021/11/09 16:30:40;;;;;;;6.15;2.97;;;;;;;;;;5088698;28;20110;-74
2021/11/09 16:33:17;;;;;;;6.82;2.55;;;;;;;;;;5094463;28;20023;-74
2021/11/09 16:35:57;;;;;;;5.25;2.80;;;;;;;;;;5098725;28;20104;-73
2021/11/09 16:38:29;;;;;;;8.02;3.28;;;;;;;;;;5074834;28;20031;-74
2021/11/09 16:40:55;;;;;;;7.07;3.63;;;;;;;;;;5123149;27;20043;-75
2021/11/09 16:43:28;;;;;;;5.78;2.58;;;;;;;;;;5072424;28;20050;-73
2021/11/09 16:48:20;;;;;;;7.05;3.10;;;;;;;;;;5092740;28;20117;-75
2021/11/09 16:53:30;;;;;;;7.03;3.53;;;;;;;;;;5072825;28;20442;-73
2021/11/09 16:58:48;;;;;;;4.75;3.35;;;;;;;;;;5071438;28;20123;-74
2021/11/09 17:01:28;;;;;;;7.93;3.80;;;;;;;;;;5073770;28;20036;-74
2021/11/09 17:04:16;;;;;;;7.15;4.03;;;;;;;;;;5086512;28;20008;-76
2021/11/09 17:07:19;;;;;;;5.15;3.17;;;;;;;;;;5073678;28;20058;-73
2021/11/09 18:07:45;;;;;;;9.57;6.15;;;;;;;;;;5091671;28;20078;-75
2021/11/09 18:20:43;;;;;;;12.05;6.95;;;;;;;;;;5061062;28;20044;-78
2021/11/09 18:23:09;;;;;;;11.25;7.30;;;;;;;;;;5060947;28;20044;-79
2021/11/09 18:25:35;;;;;;;13.05;7.88;;;;;;;;;;5067663;28;20086;-78
2021/11/09 18:28:00;;;;;;;11.63;7.32;;;;;;;;;;5055040;28;20044;-77
2021/11/09 18:30:30;;;;;;;10.95;7.28;;;;;;;;;;5062942;28;20060;-77
2021/11/09 18:32:55;;;;;;;11.73;7.43;;;;;;;;;;5034172;28;20021;-77
2021/11/09 18:35:21;;;;;;;10.77;7.65;;;;;;;;;;5054414;28;20048;-77
2021/11/09 18:37:59;;;;;;;13.05;8.20;;;;;;;;;;5045616;28;20029;-76
2021/11/09 18:40:24;;;;;;;12.38;7.53;;;;;;;;;;5063664;28;20052;-78